sensor_id;sensor_type;location;lat;lon;timestamp;P1;durP1;ratioP1;P2;durP2;ratioP2
12625;SDS011;6378;42.684;23.372;2022-12-07T00:01:09;40.90;;;20.83;;
12625;SDS011;6378;42.684;23.372;2022-12-07T00:03:36;36.37;;;19.43;;
12625;SDS011;6378;42.684;23.372;2022-12-07T00:06:03;32.50;;;18.37;;
12625;SDS011;6378;42.684;23.372;2022-12-07T00:08:30;30.13;;;17.47;;
12625;SDS011;6378;42.684;23.372;2022-12-07T00:11:03;30.80;;;17.87;;
12625;SDS011;6378;42.684;23.372;2022-12-07T00:13:30;31.03;;;17.47;;
12625;SDS011;6378;42.684;23.372;2022-12-07T00:16:01;34.47;;;17.80;;
12625;SDS011;6378;42.684;23.372;2022-12-07T00:18:31;34.23;;;17.70;;
12625;SDS011;6378;42.684;23.372;2022-12-07T00:21:16;30.33;;;17.47;;
12625;SDS011;6378;42.684;23.372;2022-12-07T00:23:47;34.17;;;18.13;;
12625;SDS011;6378;42.684;23.372;2022-12-07T00:26:14;34.93;;;17.30;;
12625;SDS011;6378;42.684;23.372;2022-12-07T00:28:45;33.50;;;17.53;;
12625;SDS011;6378;42.684;23.372;2022-12-07T00:31:15;32.67;;;17.27;;
12625;SDS011;6378;42.684;23.372;2022-12-07T00:33:42;30.87;;;16.90;;
12625;SDS011;6378;42.684;23.372;2022-12-07T00:36:08;33.17;;;17.33;;
12625;SDS011;6378;42.684;23.372;2022-12-07T00:38:36;30.93;;;17.80;;
12625;SDS011;6378;42.684;23.372;2022-12-07T00:41:03;33.43;;;18.40;;
12625;SDS011;6378;42.684;23.372;2022-12-07T00:43:30;36.93;;;17.73;;
12625;SDS011;6378;42.684;23.372;2022-12-07T00:45:56;28.53;;;16.87;;
12625;SDS011;6378;42.684;23.372;2022-12-07T00:48:22;28.83;;;17.27;;
12625;SDS011;6378;42.684;23.372;2022-12-07T00:50:48;30.20;;;17.63;;
12625;SDS011;6378;42.684;23.372;2022-12-07T00:53:14;32.13;;;17.10;;
12625;SDS011;6378;42.684;23.372;2022-12-07T00:55:40;30.93;;;17.47;;
12625;SDS011;6378;42.684;23.372;2022-12-07T00:58:06;31.27;;;17.80;;
12625;SDS011;6378;42.684;23.372;2022-12-07T01:00:31;34.43;;;17.90;;
12625;SDS011;6378;42.684;23.372;2022-12-07T01:02:58;32.20;;;16.90;;
12625;SDS011;6378;42.684;23.372;2022-12-07T01:05:24;31.13;;;17.13;;
12625;SDS011;6378;42.684;23.372;2022-12-07T01:07:49;32.00;;;18.20;;
12625;SDS011;6378;42.684;23.372;2022-12-07T01:10:14;36.23;;;19.47;;
12625;SDS011;6378;42.684;23.372;2022-12-07T01:12:40;36.23;;;19.00;;
12625;SDS011;6378;42.684;23.372;2022-12-07T01:15:06;33.10;;;19.00;;
12625;SDS011;6378;42.684;23.372;2022-12-07T01:17:32;39.77;;;21.07;;
12625;SDS011;6378;42.684;23.372;2022-12-07T01:19:57;40.27;;;22.40;;
12625;SDS011;6378;42.684;23.372;2022-12-07T01:22:22;33.10;;;20.37;;
12625;SDS011;6378;42.684;23.372;2022-12-07T01:24:48;37.97;;;21.17;;
12625;SDS011;6378;42.684;23.372;2022-12-07T01:27:14;39.27;;;21.23;;
12625;SDS011;6378;42.684;23.372;2022-12-07T01:29:40;41.00;;;21.90;;
12625;SDS011;6378;42.684;23.372;2022-12-07T01:32:06;41.00;;;22.57;;
12625;SDS011;6378;42.684;23.372;2022-12-07T01:34:31;41.17;;;22.60;;
12625;SDS011;6378;42.684;23.372;2022-12-07T01:36:57;38.80;;;22.33;;
12625;SDS011;6378;42.684;23.372;2022-12-07T01:39:22;45.57;;;26.00;;
12625;SDS011;6378;42.684;23.372;2022-12-07T01:41:48;40.10;;;22.63;;
12625;SDS011;6378;42.684;23.372;2022-12-07T01:44:24;37.27;;;22.27;;
12625;SDS011;6378;42.684;23.372;2022-12-07T01:49:23;42.50;;;22.77;;
12625;SDS011;6378;42.684;23.372;2022-12-07T01:51:53;43.77;;;23.37;;
12625;SDS011;6378;42.684;23.372;2022-12-07T01:54:23;45.60;;;25.20;;
12625;SDS011;6378;42.684;23.372;2022-12-07T01:56:51;46.40;;;25.93;;
12625;SDS011;6378;42.684;23.372;2022-12-07T01:59:19;45.20;;;24.83;;
12625;SDS011;6378;42.684;23.372;2022-12-07T02:01:49;43.80;;;24.80;;
12625;SDS011;6378;42.684;23.372;2022-12-07T02:04:15;44.03;;;23.90;;
12625;SDS011;6378;42.684;23.372;2022-12-07T02:06:41;48.17;;;24.50;;
12625;SDS011;6378;42.684;23.372;2022-12-07T02:09:09;54.37;;;28.20;;
12625;SDS011;6378;42.684;23.372;2022-12-07T02:11:35;46.57;;;25.30;;
12625;SDS011;6378;42.684;23.372;2022-12-07T02:14:00;44.37;;;23.43;;
12625;SDS011;6378;42.684;23.372;2022-12-07T02:21:52;41.90;;;22.90;;
12625;SDS011;6378;42.684;23.372;2022-12-07T02:27:02;37.07;;;20.37;;
12625;SDS011;6378;42.684;23.372;2022-12-07T02:29:33;35.00;;;20.83;;
12625;SDS011;6378;42.684;23.372;2022-12-07T02:40:33;39.63;;;21.47;;
12625;SDS011;6378;42.684;23.372;2022-12-07T02:46:10;36.67;;;20.53;;
12625;SDS011;6378;42.684;23.372;2022-12-07T02:48:41;36.10;;;20.27;;
12625;SDS011;6378;42.684;23.372;2022-12-07T02:51:08;35.03;;;20.90;;
12625;SDS011;6378;42.684;23.372;2022-12-07T02:53:41;35.87;;;20.77;;
12625;SDS011;6378;42.684;23.372;2022-12-07T03:03:58;28.80;;;17.97;;
12625;SDS011;6378;42.684;23.372;2022-12-07T03:06:39;38.23;;;18.90;;
12625;SDS011;6378;42.684;23.372;2022-12-07T03:09:35;34.77;;;18.83;;
12625;SDS011;6378;42.684;23.372;2022-12-07T03:12:10;34.40;;;19.20;;
12625;SDS011;6378;42.684;23.372;2022-12-07T03:14:41;38.60;;;19.43;;
12625;SDS011;6378;42.684;23.372;2022-12-07T03:17:15;38.47;;;19.17;;
12625;SDS011;6378;42.684;23.372;2022-12-07T03:19:46;35.67;;;18.30;;
12625;SDS011;6378;42.684;23.372;2022-12-07T03:22:14;32.53;;;18.43;;
12625;SDS011;6378;42.684;23.372;2022-12-07T03:24:48;37.70;;;19.87;;
12625;SDS011;6378;42.684;23.372;2022-12-07T03:27:20;31.67;;;18.67;;
12625;SDS011;6378;42.684;23.372;2022-12-07T03:29:58;34.70;;;18.23;;
12625;SDS011;6378;42.684;23.372;2022-12-07T03:35:35;35.70;;;18.03;;
12625;SDS011;6378;42.684;23.372;2022-12-07T03:38:07;32.17;;;17.07;;
12625;SDS011;6378;42.684;23.372;2022-12-07T03:40:48;34.47;;;19.23;;
12625;SDS011;6378;42.684;23.372;2022-12-07T03:43:25;37.20;;;19.43;;
12625;SDS011;6378;42.684;23.372;2022-12-07T03:46:01;33.80;;;19.20;;
12625;SDS011;6378;42.684;23.372;2022-12-07T03:51:46;35.93;;;19.53;;
12625;SDS011;6378;42.684;23.372;2022-12-07T03:54:43;39.47;;;20.40;;
12625;SDS011;6378;42.684;23.372;2022-12-07T03:57:29;37.90;;;20.83;;
12625;SDS011;6378;42.684;23.372;2022-12-07T03:59:58;39.90;;;21.57;;
12625;SDS011;6378;42.684;23.372;2022-12-07T04:02:25;39.50;;;21.97;;
12625;SDS011;6378;42.684;23.372;2022-12-07T04:04:53;42.87;;;23.07;;
12625;SDS011;6378;42.684;23.372;2022-12-07T04:07:19;44.03;;;23.40;;
12625;SDS011;6378;42.684;23.372;2022-12-07T04:09:45;43.90;;;23.37;;
12625;SDS011;6378;42.684;23.372;2022-12-07T04:12:10;44.03;;;22.50;;
12625;SDS011;6378;42.684;23.372;2022-12-07T04:14:36;43.47;;;23.03;;
12625;SDS011;6378;42.684;23.372;2022-12-07T04:17:01;39.43;;;21.73;;
12625;SDS011;6378;42.684;23.372;2022-12-07T04:19:28;40.03;;;20.00;;
12625;SDS011;6378;42.684;23.372;2022-12-07T04:21:56;41.70;;;20.83;;
12625;SDS011;6378;42.684;23.372;2022-12-07T04:24:22;44.53;;;21.83;;
12625;SDS011;6378;42.684;23.372;2022-12-07T04:26:47;39.17;;;20.90;;
12625;SDS011;6378;42.684;23.372;2022-12-07T04:29:13;35.20;;;21.37;;
12625;SDS011;6378;42.684;23.372;2022-12-07T04:31:39;38.10;;;20.60;;
12625;SDS011;6378;42.684;23.372;2022-12-07T04:34:05;37.00;;;19.73;;
12625;SDS011;6378;42.684;23.372;2022-12-07T04:36:31;40.93;;;20.73;;
12625;SDS011;6378;42.684;23.372;2022-12-07T04:38:58;43.20;;;22.10;;
12625;SDS011;6378;42.684;23.372;2022-12-07T04:41:24;45.17;;;21.60;;
12625;SDS011;6378;42.684;23.372;2022-12-07T04:43:54;41.97;;;21.97;;
12625;SDS011;6378;42.684;23.372;2022-12-07T04:46:25;45.17;;;22.20;;
12625;SDS011;6378;42.684;23.372;2022-12-07T04:48:52;41.27;;;22.03;;
12625;SDS011;6378;42.684;23.372;2022-12-07T04:51:24;41.87;;;21.70;;
12625;SDS011;6378;42.684;23.372;2022-12-07T04:53:52;46.00;;;23.17;;
12625;SDS011;6378;42.684;23.372;2022-12-07T04:56:18;40.87;;;23.30;;
12625;SDS011;6378;42.684;23.372;2022-12-07T04:58:44;41.90;;;23.00;;
12625;SDS011;6378;42.684;23.372;2022-12-07T05:01:11;45.87;;;23.93;;
12625;SDS011;6378;42.684;23.372;2022-12-07T05:03:39;37.83;;;20.90;;
12625;SDS011;6378;42.684;23.372;2022-12-07T05:06:04;47.40;;;23.10;;
12625;SDS011;6378;42.684;23.372;2022-12-07T05:08:32;40.83;;;22.10;;
12625;SDS011;6378;42.684;23.372;2022-12-07T05:10:57;44.00;;;22.93;;
12625;SDS011;6378;42.684;23.372;2022-12-07T05:13:23;39.37;;;20.87;;
12625;SDS011;6378;42.684;23.372;2022-12-07T05:15:48;37.13;;;20.93;;
12625;SDS011;6378;42.684;23.372;2022-12-07T05:18:14;40.83;;;21.43;;
12625;SDS011;6378;42.684;23.372;2022-12-07T05:20:40;42.93;;;23.17;;
12625;SDS011;6378;42.684;23.372;2022-12-07T05:23:07;41.53;;;21.37;;
12625;SDS011;6378;42.684;23.372;2022-12-07T05:25:32;44.13;;;22.97;;
12625;SDS011;6378;42.684;23.372;2022-12-07T05:27:58;41.20;;;21.97;;
12625;SDS011;6378;42.684;23.372;2022-12-07T05:30:23;42.37;;;22.80;;
12625;SDS011;6378;42.684;23.372;2022-12-07T05:32:50;45.00;;;22.67;;
12625;SDS011;6378;42.684;23.372;2022-12-07T05:35:16;39.07;;;21.83;;
12625;SDS011;6378;42.684;23.372;2022-12-07T05:37:42;40.73;;;22.77;;
12625;SDS011;6378;42.684;23.372;2022-12-07T05:40:08;39.43;;;20.60;;
12625;SDS011;6378;42.684;23.372;2022-12-07T05:42:35;39.80;;;20.70;;
12625;SDS011;6378;42.684;23.372;2022-12-07T05:45:00;42.13;;;21.27;;
12625;SDS011;6378;42.684;23.372;2022-12-07T05:47:26;40.27;;;22.00;;
12625;SDS011;6378;42.684;23.372;2022-12-07T05:49:51;41.67;;;22.90;;
12625;SDS011;6378;42.684;23.372;2022-12-07T05:52:17;41.67;;;22.03;;
12625;SDS011;6378;42.684;23.372;2022-12-07T05:54:42;42.17;;;22.30;;
12625;SDS011;6378;42.684;23.372;2022-12-07T05:57:08;39.37;;;21.77;;
12625;SDS011;6378;42.684;23.372;2022-12-07T05:59:33;46.67;;;23.40;;
12625;SDS011;6378;42.684;23.372;2022-12-07T06:01:59;48.20;;;22.97;;
12625;SDS011;6378;42.684;23.372;2022-12-07T06:04:28;45.43;;;23.67;;
12625;SDS011;6378;42.684;23.372;2022-12-07T06:06:56;45.30;;;24.53;;
12625;SDS011;6378;42.684;23.372;2022-12-07T06:09:22;44.10;;;23.03;;
12625;SDS011;6378;42.684;23.372;2022-12-07T06:11:48;45.07;;;22.73;;
12625;SDS011;6378;42.684;23.372;2022-12-07T06:14:32;51.27;;;24.53;;
12625;SDS011;6378;42.684;23.372;2022-12-07T06:16:58;50.63;;;25.70;;
12625;SDS011;6378;42.684;23.372;2022-12-07T06:19:24;49.30;;;24.30;;
12625;SDS011;6378;42.684;23.372;2022-12-07T06:21:49;46.13;;;25.13;;
12625;SDS011;6378;42.684;23.372;2022-12-07T06:24:16;47.57;;;23.70;;
12625;SDS011;6378;42.684;23.372;2022-12-07T06:26:42;41.47;;;22.20;;
12625;SDS011;6378;42.684;23.372;2022-12-07T06:29:08;42.10;;;23.90;;
12625;SDS011;6378;42.684;23.372;2022-12-07T06:31:35;52.93;;;26.13;;
12625;SDS011;6378;42.684;23.372;2022-12-07T06:34:02;52.13;;;25.93;;
12625;SDS011;6378;42.684;23.372;2022-12-07T06:36:32;45.20;;;24.13;;
12625;SDS011;6378;42.684;23.372;2022-12-07T06:38:58;53.37;;;26.03;;
12625;SDS011;6378;42.684;23.372;2022-12-07T06:41:23;48.03;;;24.80;;
12625;SDS011;6378;42.684;23.372;2022-12-07T06:43:49;51.40;;;27.17;;
12625;SDS011;6378;42.684;23.372;2022-12-07T06:46:15;52.17;;;25.93;;
12625;SDS011;6378;42.684;23.372;2022-12-07T06:48:41;44.57;;;24.77;;
12625;SDS011;6378;42.684;23.372;2022-12-07T06:51:07;43.37;;;24.27;;
12625;SDS011;6378;42.684;23.372;2022-12-07T06:53:33;59.53;;;32.63;;
12625;SDS011;6378;42.684;23.372;2022-12-07T06:55:59;53.37;;;30.53;;
12625;SDS011;6378;42.684;23.372;2022-12-07T06:58:25;53.53;;;30.40;;
12625;SDS011;6378;42.684;23.372;2022-12-07T07:00:50;55.37;;;31.07;;
12625;SDS011;6378;42.684;23.372;2022-12-07T07:03:16;54.60;;;30.97;;
12625;SDS011;6378;42.684;23.372;2022-12-07T07:05:42;47.30;;;27.33;;
12625;SDS011;6378;42.684;23.372;2022-12-07T07:08:08;53.60;;;28.53;;
12625;SDS011;6378;42.684;23.372;2022-12-07T07:10:34;50.00;;;26.83;;
12625;SDS011;6378;42.684;23.372;2022-12-07T07:13:01;50.03;;;24.63;;
12625;SDS011;6378;42.684;23.372;2022-12-07T07:15:26;42.90;;;24.07;;
12625;SDS011;6378;42.684;23.372;2022-12-07T07:17:52;41.70;;;24.67;;
12625;SDS011;6378;42.684;23.372;2022-12-07T07:20:17;44.53;;;23.83;;
12625;SDS011;6378;42.684;23.372;2022-12-07T07:22:43;44.37;;;22.87;;
12625;SDS011;6378;42.684;23.372;2022-12-07T07:25:08;41.33;;;22.57;;
12625;SDS011;6378;42.684;23.372;2022-12-07T07:27:34;44.67;;;23.70;;
12625;SDS011;6378;42.684;23.372;2022-12-07T07:29:59;40.07;;;24.33;;
12625;SDS011;6378;42.684;23.372;2022-12-07T07:32:25;49.43;;;26.67;;
12625;SDS011;6378;42.684;23.372;2022-12-07T07:34:50;49.60;;;26.43;;
12625;SDS011;6378;42.684;23.372;2022-12-07T07:37:15;53.03;;;30.77;;
12625;SDS011;6378;42.684;23.372;2022-12-07T07:39:41;55.77;;;32.77;;
12625;SDS011;6378;42.684;23.372;2022-12-07T07:42:06;56.70;;;32.13;;
12625;SDS011;6378;42.684;23.372;2022-12-07T07:44:32;61.90;;;34.40;;
12625;SDS011;6378;42.684;23.372;2022-12-07T07:46:58;63.23;;;36.97;;
12625;SDS011;6378;42.684;23.372;2022-12-07T07:49:24;65.80;;;37.83;;
12625;SDS011;6378;42.684;23.372;2022-12-07T07:51:50;66.17;;;38.83;;
12625;SDS011;6378;42.684;23.372;2022-12-07T07:54:16;76.57;;;44.87;;
12625;SDS011;6378;42.684;23.372;2022-12-07T07:56:41;83.60;;;53.50;;
12625;SDS011;6378;42.684;23.372;2022-12-07T07:59:07;63.70;;;39.20;;
12625;SDS011;6378;42.684;23.372;2022-12-07T08:01:33;70.43;;;39.30;;
12625;SDS011;6378;42.684;23.372;2022-12-07T08:03:58;60.10;;;35.13;;
12625;SDS011;6378;42.684;23.372;2022-12-07T08:06:24;55.93;;;33.77;;
12625;SDS011;6378;42.684;23.372;2022-12-07T08:08:50;53.50;;;35.37;;
12625;SDS011;6378;42.684;23.372;2022-12-07T08:11:15;64.70;;;35.80;;
12625;SDS011;6378;42.684;23.372;2022-12-07T08:13:40;57.17;;;34.40;;
12625;SDS011;6378;42.684;23.372;2022-12-07T08:16:07;61.07;;;33.73;;
12625;SDS011;6378;42.684;23.372;2022-12-07T08:18:35;55.13;;;33.03;;
12625;SDS011;6378;42.684;23.372;2022-12-07T08:21:02;50.63;;;31.27;;
12625;SDS011;6378;42.684;23.372;2022-12-07T08:23:28;47.93;;;31.00;;
12625;SDS011;6378;42.684;23.372;2022-12-07T08:25:54;54.60;;;32.43;;
12625;SDS011;6378;42.684;23.372;2022-12-07T08:28:19;53.90;;;31.87;;
12625;SDS011;6378;42.684;23.372;2022-12-07T08:30:45;74.00;;;43.03;;
12625;SDS011;6378;42.684;23.372;2022-12-07T08:33:11;53.20;;;31.43;;
12625;SDS011;6378;42.684;23.372;2022-12-07T08:35:36;46.20;;;30.17;;
12625;SDS011;6378;42.684;23.372;2022-12-07T08:38:02;50.93;;;29.77;;
12625;SDS011;6378;42.684;23.372;2022-12-07T08:40:28;48.23;;;30.50;;
12625;SDS011;6378;42.684;23.372;2022-12-07T08:42:54;49.50;;;32.20;;
12625;SDS011;6378;42.684;23.372;2022-12-07T08:45:20;52.87;;;32.13;;
12625;SDS011;6378;42.684;23.372;2022-12-07T08:47:50;52.80;;;32.33;;
12625;SDS011;6378;42.684;23.372;2022-12-07T08:50:31;51.07;;;31.83;;
12625;SDS011;6378;42.684;23.372;2022-12-07T08:52:59;58.17;;;33.17;;
12625;SDS011;6378;42.684;23.372;2022-12-07T08:55:26;52.10;;;31.90;;
12625;SDS011;6378;42.684;23.372;2022-12-07T08:57:53;55.00;;;31.63;;
12625;SDS011;6378;42.684;23.372;2022-12-07T09:00:19;51.60;;;31.57;;
12625;SDS011;6378;42.684;23.372;2022-12-07T09:02:44;53.37;;;31.73;;
12625;SDS011;6378;42.684;23.372;2022-12-07T09:05:11;50.77;;;29.60;;
12625;SDS011;6378;42.684;23.372;2022-12-07T09:07:39;48.30;;;29.43;;
12625;SDS011;6378;42.684;23.372;2022-12-07T09:10:07;46.57;;;29.10;;
12625;SDS011;6378;42.684;23.372;2022-12-07T09:12:33;44.47;;;27.63;;
12625;SDS011;6378;42.684;23.372;2022-12-07T09:14:58;49.80;;;26.87;;
12625;SDS011;6378;42.684;23.372;2022-12-07T09:17:25;47.43;;;27.70;;
12625;SDS011;6378;42.684;23.372;2022-12-07T09:19:51;43.33;;;26.40;;
12625;SDS011;6378;42.684;23.372;2022-12-07T09:22:16;41.67;;;24.73;;
12625;SDS011;6378;42.684;23.372;2022-12-07T09:24:42;42.33;;;25.80;;
12625;SDS011;6378;42.684;23.372;2022-12-07T09:27:08;39.40;;;25.20;;
12625;SDS011;6378;42.684;23.372;2022-12-07T09:29:33;48.10;;;26.23;;
12625;SDS011;6378;42.684;23.372;2022-12-07T09:31:59;45.40;;;26.67;;
12625;SDS011;6378;42.684;23.372;2022-12-07T09:34:24;44.30;;;25.43;;
12625;SDS011;6378;42.684;23.372;2022-12-07T09:36:51;50.00;;;28.23;;
12625;SDS011;6378;42.684;23.372;2022-12-07T09:39:17;54.67;;;27.97;;
12625;SDS011;6378;42.684;23.372;2022-12-07T09:41:43;44.40;;;27.03;;
12625;SDS011;6378;42.684;23.372;2022-12-07T09:44:14;48.70;;;28.83;;
12625;SDS011;6378;42.684;23.372;2022-12-07T09:46:45;47.67;;;27.93;;
12625;SDS011;6378;42.684;23.372;2022-12-07T09:49:16;52.27;;;28.53;;
12625;SDS011;6378;42.684;23.372;2022-12-07T09:51:44;51.60;;;28.73;;
12625;SDS011;6378;42.684;23.372;2022-12-07T09:54:14;48.03;;;27.60;;
12625;SDS011;6378;42.684;23.372;2022-12-07T09:56:40;54.87;;;28.80;;
12625;SDS011;6378;42.684;23.372;2022-12-07T09:59:09;47.27;;;25.80;;
12625;SDS011;6378;42.684;23.372;2022-12-07T10:01:41;51.37;;;26.87;;
12625;SDS011;6378;42.684;23.372;2022-12-07T10:06:43;43.37;;;24.40;;
12625;SDS011;6378;42.684;23.372;2022-12-07T10:09:11;40.70;;;23.03;;
12625;SDS011;6378;42.684;23.372;2022-12-07T10:14:25;46.20;;;25.77;;
12625;SDS011;6378;42.684;23.372;2022-12-07T10:16:53;43.43;;;24.93;;
12625;SDS011;6378;42.684;23.372;2022-12-07T10:24:29;40.50;;;22.93;;
12625;SDS011;6378;42.684;23.372;2022-12-07T10:26:54;43.13;;;23.90;;
12625;SDS011;6378;42.684;23.372;2022-12-07T10:29:22;40.20;;;24.57;;
12625;SDS011;6378;42.684;23.372;2022-12-07T10:34:51;43.03;;;26.33;;
12625;SDS011;6378;42.684;23.372;2022-12-07T10:37:40;38.00;;;24.43;;
12625;SDS011;6378;42.684;23.372;2022-12-07T10:40:23;33.27;;;19.67;;
12625;SDS011;6378;42.684;23.372;2022-12-07T10:48:16;33.07;;;18.70;;
12625;SDS011;6378;42.684;23.372;2022-12-07T10:56:18;33.20;;;20.03;;
12625;SDS011;6378;42.684;23.372;2022-12-07T11:01:51;33.60;;;18.77;;
12625;SDS011;6378;42.684;23.372;2022-12-07T11:15:35;32.07;;;18.10;;
12625;SDS011;6378;42.684;23.372;2022-12-07T11:21:39;37.77;;;20.27;;
12625;SDS011;6378;42.684;23.372;2022-12-07T11:24:10;31.77;;;19.10;;
12625;SDS011;6378;42.684;23.372;2022-12-07T11:26:58;28.63;;;16.13;;
12625;SDS011;6378;42.684;23.372;2022-12-07T11:32:07;33.07;;;18.07;;
12625;SDS011;6378;42.684;23.372;2022-12-07T11:34:43;31.60;;;17.13;;
12625;SDS011;6378;42.684;23.372;2022-12-07T11:37:18;32.27;;;18.27;;
12625;SDS011;6378;42.684;23.372;2022-12-07T11:42:37;25.07;;;15.00;;
12625;SDS011;6378;42.684;23.372;2022-12-07T11:45:19;26.33;;;14.80;;
12625;SDS011;6378;42.684;23.372;2022-12-07T11:47:54;28.93;;;15.93;;
12625;SDS011;6378;42.684;23.372;2022-12-07T11:50:38;32.23;;;14.97;;
12625;SDS011;6378;42.684;23.372;2022-12-07T11:53:24;23.13;;;14.33;;
12625;SDS011;6378;42.684;23.372;2022-12-07T11:55:57;23.77;;;16.98;;
12625;SDS011;6378;42.684;23.372;2022-12-07T12:03:58;24.03;;;13.90;;
12625;SDS011;6378;42.684;23.372;2022-12-07T12:06:31;24.03;;;14.17;;
12625;SDS011;6378;42.684;23.372;2022-12-07T12:19:45;28.50;;;15.07;;
12625;SDS011;6378;42.684;23.372;2022-12-07T12:22:22;27.20;;;14.83;;
12625;SDS011;6378;42.684;23.372;2022-12-07T12:24:58;27.93;;;15.60;;
12625;SDS011;6378;42.684;23.372;2022-12-07T12:27:25;28.67;;;15.90;;
12625;SDS011;6378;42.684;23.372;2022-12-07T12:29:55;26.07;;;16.37;;
12625;SDS011;6378;42.684;23.372;2022-12-07T12:32:30;31.30;;;15.57;;
12625;SDS011;6378;42.684;23.372;2022-12-07T12:37:57;29.57;;;16.07;;
12625;SDS011;6378;42.684;23.372;2022-12-07T12:40:46;25.47;;;14.73;;
12625;SDS011;6378;42.684;23.372;2022-12-07T12:48:54;22.10;;;13.93;;
12625;SDS011;6378;42.684;23.372;2022-12-07T12:54:15;26.40;;;15.10;;
12625;SDS011;6378;42.684;23.372;2022-12-07T12:59:38;22.00;;;13.30;;
12625;SDS011;6378;42.684;23.372;2022-12-07T13:18:37;22.60;;;14.07;;
12625;SDS011;6378;42.684;23.372;2022-12-07T13:20:56;23.83;;;13.30;;
12625;SDS011;6378;42.684;23.372;2022-12-07T13:29:12;22.17;;;14.02;;
12625;SDS011;6378;42.684;23.372;2022-12-07T13:31:42;22.85;;;14.32;;
12625;SDS011;6378;42.684;23.372;2022-12-07T13:34:32;26.73;;;14.57;;
12625;SDS011;6378;42.684;23.372;2022-12-07T13:36:59;24.35;;;15.10;;
12625;SDS011;6378;42.684;23.372;2022-12-07T13:39:27;22.80;;;14.07;;
12625;SDS011;6378;42.684;23.372;2022-12-07T13:41:53;23.97;;;13.63;;
12625;SDS011;6378;42.684;23.372;2022-12-07T13:44:20;25.63;;;14.03;;
12625;SDS011;6378;42.684;23.372;2022-12-07T13:49:22;21.90;;;13.85;;
12625;SDS011;6378;42.684;23.372;2022-12-07T13:51:52;23.77;;;13.32;;
12625;SDS011;6378;42.684;23.372;2022-12-07T13:54:19;21.37;;;13.93;;
12625;SDS011;6378;42.684;23.372;2022-12-07T13:56:49;25.10;;;13.55;;
12625;SDS011;6378;42.684;23.372;2022-12-07T13:59:17;24.30;;;14.30;;
12625;SDS011;6378;42.684;23.372;2022-12-07T14:01:46;21.52;;;13.15;;
12625;SDS011;6378;42.684;23.372;2022-12-07T14:04:30;28.33;;;13.63;;
12625;SDS011;6378;42.684;23.372;2022-12-07T14:06:55;29.03;;;13.63;;
12625;SDS011;6378;42.684;23.372;2022-12-07T14:09:25;28.33;;;14.13;;
12625;SDS011;6378;42.684;23.372;2022-12-07T14:11:52;22.80;;;13.40;;
12625;SDS011;6378;42.684;23.372;2022-12-07T14:14:21;23.80;;;13.47;;
12625;SDS011;6378;42.684;23.372;2022-12-07T14:16:58;23.33;;;13.27;;
12625;SDS011;6378;42.684;23.372;2022-12-07T14:22:30;24.00;;;13.70;;
12625;SDS011;6378;42.684;23.372;2022-12-07T14:27:33;31.70;;;15.07;;
12625;SDS011;6378;42.684;23.372;2022-12-07T14:30:00;26.90;;;14.97;;
12625;SDS011;6378;42.684;23.372;2022-12-07T14:32:27;28.93;;;14.83;;
12625;SDS011;6378;42.684;23.372;2022-12-07T14:37:20;29.37;;;16.07;;
12625;SDS011;6378;42.684;23.372;2022-12-07T14:39:46;46.10;;;24.67;;
12625;SDS011;6378;42.684;23.372;2022-12-07T14:42:11;32.63;;;20.20;;
12625;SDS011;6378;42.684;23.372;2022-12-07T14:44:36;37.73;;;21.53;;
12625;SDS011;6378;42.684;23.372;2022-12-07T14:47:02;31.43;;;19.73;;
12625;SDS011;6378;42.684;23.372;2022-12-07T14:49:27;27.93;;;16.40;;
12625;SDS011;6378;42.684;23.372;2022-12-07T14:51:53;26.23;;;15.60;;
12625;SDS011;6378;42.684;23.372;2022-12-07T14:54:19;29.97;;;15.97;;
12625;SDS011;6378;42.684;23.372;2022-12-07T14:56:46;29.60;;;15.03;;
12625;SDS011;6378;42.684;23.372;2022-12-07T14:59:15;29.97;;;15.50;;
12625;SDS011;6378;42.684;23.372;2022-12-07T15:01:41;22.63;;;14.07;;
12625;SDS011;6378;42.684;23.372;2022-12-07T15:04:06;25.43;;;15.60;;
12625;SDS011;6378;42.684;23.372;2022-12-07T15:06:32;26.33;;;14.93;;
12625;SDS011;6378;42.684;23.372;2022-12-07T15:08:57;23.23;;;14.27;;
12625;SDS011;6378;42.684;23.372;2022-12-07T15:11:23;22.40;;;13.67;;
12625;SDS011;6378;42.684;23.372;2022-12-07T15:13:48;26.73;;;15.60;;
12625;SDS011;6378;42.684;23.372;2022-12-07T15:16:32;26.67;;;15.87;;
12625;SDS011;6378;42.684;23.372;2022-12-07T15:18:58;38.70;;;19.50;;
12625;SDS011;6378;42.684;23.372;2022-12-07T15:21:24;35.80;;;19.80;;
12625;SDS011;6378;42.684;23.372;2022-12-07T15:23:49;38.97;;;19.20;;
12625;SDS011;6378;42.684;23.372;2022-12-07T15:26:15;37.43;;;20.27;;
12625;SDS011;6378;42.684;23.372;2022-12-07T15:28:42;31.80;;;17.53;;
12625;SDS011;6378;42.684;23.372;2022-12-07T15:31:14;31.30;;;18.13;;
12625;SDS011;6378;42.684;23.372;2022-12-07T15:33:40;32.67;;;18.43;;
12625;SDS011;6378;42.684;23.372;2022-12-07T15:36:06;33.60;;;18.33;;
12625;SDS011;6378;42.684;23.372;2022-12-07T15:38:40;33.60;;;17.27;;
12625;SDS011;6378;42.684;23.372;2022-12-07T15:41:05;25.40;;;17.33;;
12625;SDS011;6378;42.684;23.372;2022-12-07T15:43:31;31.17;;;18.63;;
12625;SDS011;6378;42.684;23.372;2022-12-07T15:46:16;35.83;;;18.80;;
12625;SDS011;6378;42.684;23.372;2022-12-07T15:48:42;31.87;;;17.83;;
12625;SDS011;6378;42.684;23.372;2022-12-07T15:51:08;32.30;;;19.10;;
12625;SDS011;6378;42.684;23.372;2022-12-07T15:53:34;33.10;;;18.27;;
12625;SDS011;6378;42.684;23.372;2022-12-07T15:56:00;33.97;;;19.17;;
12625;SDS011;6378;42.684;23.372;2022-12-07T15:58:26;36.83;;;21.93;;
12625;SDS011;6378;42.684;23.372;2022-12-07T16:00:51;33.53;;;21.13;;
12625;SDS011;6378;42.684;23.372;2022-12-07T16:03:17;41.13;;;21.20;;
12625;SDS011;6378;42.684;23.372;2022-12-07T16:05:48;57.90;;;26.10;;
12625;SDS011;6378;42.684;23.372;2022-12-07T16:08:14;54.33;;;26.80;;
12625;SDS011;6378;42.684;23.372;2022-12-07T16:10:39;44.10;;;24.77;;
12625;SDS011;6378;42.684;23.372;2022-12-07T16:13:08;49.30;;;25.17;;
12625;SDS011;6378;42.684;23.372;2022-12-07T16:15:39;53.70;;;27.97;;
12625;SDS011;6378;42.684;23.372;2022-12-07T16:18:06;51.10;;;27.13;;
12625;SDS011;6378;42.684;23.372;2022-12-07T16:20:32;61.90;;;31.90;;
12625;SDS011;6378;42.684;23.372;2022-12-07T16:22:57;52.10;;;26.53;;
12625;SDS011;6378;42.684;23.372;2022-12-07T16:25:23;52.33;;;25.67;;
12625;SDS011;6378;42.684;23.372;2022-12-07T16:27:49;58.30;;;36.00;;
12625;SDS011;6378;42.684;23.372;2022-12-07T16:30:15;143.93;;;81.23;;
12625;SDS011;6378;42.684;23.372;2022-12-07T16:32:44;207.73;;;123.17;;
12625;SDS011;6378;42.684;23.372;2022-12-07T16:35:09;132.77;;;81.67;;
12625;SDS011;6378;42.684;23.372;2022-12-07T16:37:36;110.77;;;66.67;;
12625;SDS011;6378;42.684;23.372;2022-12-07T16:40:03;211.77;;;126.07;;
12625;SDS011;6378;42.684;23.372;2022-12-07T16:42:33;252.97;;;159.37;;
12625;SDS011;6378;42.684;23.372;2022-12-07T16:44:59;266.63;;;160.53;;
12625;SDS011;6378;42.684;23.372;2022-12-07T16:47:25;295.37;;;187.00;;
12625;SDS011;6378;42.684;23.372;2022-12-07T16:49:50;198.97;;;117.87;;
12625;SDS011;6378;42.684;23.372;2022-12-07T16:52:17;218.17;;;134.37;;
12625;SDS011;6378;42.684;23.372;2022-12-07T16:54:43;184.13;;;107.87;;